createdAt,value
2019-05-19T00:01:44.705Z,81.12
2019-05-19T00:04:14.188Z,81.00
2019-05-19T00:06:45.274Z,81.37
2019-05-19T00:09:20.105Z,78.00
2019-05-19T00:12:26.101Z,80.62
2019-05-19T00:15:15.114Z,76.00
2019-05-19T00:17:45.594Z,81.15
2019-05-19T00:20:20.493Z,82.15
2019-05-19T00:22:55.275Z,80.77
2019-05-19T00:25:27.765Z,79.42
2019-05-19T00:28:00.965Z,82.20
2019-05-19T00:30:29.949Z,82.12
2019-05-19T00:33:36.523Z,82.88
2019-05-19T00:36:13.843Z,85.72
2019-05-19T00:38:45.783Z,85.03
2019-05-19T00:41:17.771Z,87.50
2019-05-19T00:43:52.348Z,83.95
2019-05-19T00:46:27.138Z,84.95
2019-05-19T00:49:07.290Z,85.35
2019-05-19T00:51:39.554Z,81.10
2019-05-19T00:54:11.592Z,81.22
2019-05-19T00:56:40.917Z,82.10
2019-05-19T00:59:12.643Z,81.28
2019-05-19T01:01:44.406Z,81.15
2019-05-19T01:04:16.315Z,83.55
2019-05-19T01:06:57.513Z,85.28
2019-05-19T01:09:32.017Z,83.17
2019-05-19T01:12:03.972Z,82.35
2019-05-19T01:14:46.604Z,85.47
2019-05-19T01:17:16.423Z,82.75
2019-05-19T01:19:55.878Z,83.17
2019-05-19T01:22:21.807Z,84.50
2019-05-19T01:24:53.865Z,86.17
2019-05-19T01:27:32.096Z,87.08
2019-05-19T01:30:01.839Z,86.08
2019-05-19T01:32:33.167Z,89.42
2019-05-19T01:35:11.375Z,85.47
2019-05-19T01:37:46.237Z,85.25
2019-05-19T01:40:17.694Z,84.58
2019-05-19T01:45:18.171Z,83.27
2019-05-19T01:47:47.068Z,87.17
2019-05-19T01:50:21.884Z,88.97
2019-05-19T01:52:56.870Z,86.05
2019-05-19T01:55:28.674Z,86.92
2019-05-19T01:58:06.818Z,86.45
2019-05-19T02:00:38.729Z,90.53
2019-05-19T02:03:10.348Z,91.10
2019-05-19T02:05:40.086Z,90.22
2019-05-19T02:08:09.321Z,89.13
2019-05-19T02:10:44.498Z,88.12
2019-05-19T02:13:18.991Z,89.37
2019-05-19T02:16:11.803Z,91.42
2019-05-19T02:18:50.438Z,86.55
2019-05-19T02:21:21.030Z,88.07
2019-05-19T02:23:49.996Z,89.67
2019-05-19T02:26:24.574Z,86.05
2019-05-19T02:28:56.162Z,88.07
2019-05-19T02:31:31.126Z,88.40
2019-05-19T02:34:05.823Z,88.15
2019-05-19T02:36:37.598Z,88.78
2019-05-19T02:39:12.200Z,93.00
2019-05-19T02:41:46.051Z,87.90
2019-05-19T02:44:15.038Z,85.83
2019-05-19T02:46:51.509Z,86.02
2019-05-19T02:49:23.474Z,86.63
2019-05-19T02:51:56.473Z,86.97
2019-05-19T02:54:26.101Z,86.40
2019-05-19T02:57:02.484Z,86.90
2019-05-19T02:59:32.398Z,86.63
2019-05-19T03:02:10.375Z,85.70
2019-05-19T03:04:41.871Z,87.70
2019-05-19T03:09:52.945Z,85.92
2019-05-19T03:12:27.688Z,89.65
2019-05-19T03:14:56.522Z,90.30
2019-05-19T03:17:28.196Z,91.15
2019-05-19T03:20:02.722Z,89.62
2019-05-19T03:22:41.298Z,93.07
2019-05-19T03:25:13.229Z,92.92
2019-05-19T03:27:45.136Z,90.72
2019-05-19T03:30:28.807Z,89.13
2019-05-19T03:33:05.331Z,90.72
2019-05-19T03:35:36.197Z,91.35
2019-05-19T03:38:10.962Z,89.42
2019-05-19T03:41:48.710Z,91.25
2019-05-19T03:44:23.562Z,90.75
2019-05-19T03:46:53.323Z,90.60
2019-05-19T03:52:50.805Z,88.67
2019-05-19T03:55:19.528Z,89.10
2019-05-19T03:57:54.342Z,89.40
2019-05-19T04:00:25.877Z,92.12
2019-05-19T04:02:57.222Z,90.40
2019-05-19T04:05:31.730Z,89.47
2019-05-19T04:08:03.696Z,91.55
2019-05-19T04:10:48.449Z,92.20
2019-05-19T04:13:17.095Z,88.85
2019-05-19T04:15:51.888Z,89.62
2019-05-19T04:18:22.492Z,91.30
2019-05-19T04:20:53.363Z,87.90
2019-05-19T04:23:28.076Z,88.07
2019-05-19T04:25:57.880Z,90.57
2019-05-19T04:28:27.676Z,87.25
2019-05-19T04:31:06.456Z,89.20
2019-05-19T04:33:41.923Z,86.85
2019-05-19T04:36:16.478Z,88.62
2019-05-19T04:38:47.328Z,87.85
2019-05-19T04:41:16.067Z,86.35
2019-05-19T04:43:50.650Z,84.58
2019-05-19T04:46:22.457Z,84.90
2019-05-19T04:48:53.900Z,84.60
2019-05-19T04:54:27.651Z,78.52
2019-05-19T04:57:06.636Z,84.62
2019-05-19T04:59:39.356Z,83.65
2019-05-19T05:02:14.168Z,81.50
2019-05-19T05:04:49.779Z,82.70
2019-05-19T05:07:18.784Z,82.78
2019-05-19T05:10:00.429Z,82.45
2019-05-19T05:12:30.479Z,81.57
2019-05-19T05:15:02.665Z,83.62
2019-05-19T05:17:39.732Z,79.27
2019-05-19T05:20:11.750Z,78.42
2019-05-19T05:22:47.803Z,80.28
2019-05-19T05:25:18.069Z,77.25
2019-05-19T05:27:49.351Z,77.65
2019-05-19T05:30:24.091Z,79.25
2019-05-19T05:33:18.662Z,79.27
2019-05-19T05:35:48.705Z,77.25
2019-05-19T05:38:31.531Z,80.70
2019-05-19T05:41:00.801Z,76.67
2019-05-19T05:43:35.265Z,79.90
2019-05-19T05:46:07.039Z,78.00
2019-05-19T05:48:44.679Z,79.30
2019-05-19T05:51:17.567Z,75.20
2019-05-19T05:53:50.031Z,78.95
2019-05-19T05:56:19.143Z,77.97
2019-05-19T05:58:54.028Z,80.83
2019-05-19T06:01:41.311Z,78.02
2019-05-19T06:04:10.600Z,79.03
2019-05-19T06:06:44.042Z,78.02
2019-05-19T06:09:22.375Z,78.75
2019-05-19T06:11:57.246Z,80.75
2019-05-19T06:14:28.983Z,78.83
2019-05-19T06:17:00.993Z,78.70
2019-05-19T06:19:29.743Z,77.53
2019-05-19T06:22:15.708Z,74.60
2019-05-19T06:25:08.354Z,77.47
2019-05-19T06:27:43.387Z,77.37
2019-05-19T06:30:15.734Z,79.37
2019-05-19T06:32:54.927Z,76.95
2019-05-19T06:35:25.518Z,78.33
2019-05-19T06:37:56.455Z,78.37
2019-05-19T06:40:31.999Z,78.55
2019-05-19T06:43:03.359Z,80.42
2019-05-19T06:48:05.058Z,78.57
2019-05-19T06:50:34.916Z,79.75
2019-05-19T06:53:15.053Z,76.30
2019-05-19T06:55:48.793Z,75.62
2019-05-19T06:58:17.577Z,77.27
2019-05-19T07:00:49.676Z,79.62
2019-05-19T07:03:25.486Z,76.62
2019-05-19T07:05:55.255Z,75.65
2019-05-19T07:08:34.975Z,76.65
2019-05-19T07:11:03.558Z,75.92
2019-05-19T07:13:38.624Z,76.28
2019-05-19T07:19:12.501Z,73.33
2019-05-19T07:21:43.098Z,73.02
2019-05-19T07:24:25.775Z,73.97
2019-05-19T07:26:57.448Z,75.20
2019-05-19T07:29:54.199Z,73.35
2019-05-19T07:32:23.659Z,72.27
2019-05-19T07:34:59.166Z,74.47
2019-05-19T07:37:27.945Z,73.12
2019-05-19T07:40:27.027Z,74.03
2019-05-19T07:43:21.512Z,75.57
2019-05-19T07:45:56.904Z,73.12
2019-05-19T07:48:28.335Z,75.32
2019-05-19T07:51:05.448Z,78.83
2019-05-19T07:53:42.670Z,77.80
2019-05-19T07:56:07.111Z,79.27
2019-05-19T07:58:39.024Z,82.20
2019-05-19T08:01:10.419Z,84.55
2019-05-19T08:06:18.769Z,80.85
2019-05-19T08:08:52.370Z,80.53
2019-05-19T08:11:24.961Z,75.97
2019-05-19T08:13:56.420Z,76.47
2019-05-19T08:16:36.255Z,75.47
2019-05-19T08:19:07.910Z,73.47
2019-05-19T08:21:40.108Z,77.78
2019-05-19T08:24:11.630Z,73.33
2019-05-19T08:26:46.085Z,71.35
2019-05-19T08:29:16.884Z,71.07
2019-05-19T08:31:48.801Z,70.47
2019-05-19T08:34:20.048Z,70.08
2019-05-19T08:39:28.610Z,70.83
2019-05-19T08:41:59.650Z,72.72
2019-05-19T08:44:31.079Z,70.30
2019-05-19T08:47:05.495Z,69.53
2019-05-19T08:49:34.262Z,69.53
2019-05-19T08:52:09.178Z,69.15
2019-05-19T08:54:38.026Z,68.57
2019-05-19T08:57:23.263Z,69.87
2019-05-19T08:59:53.008Z,67.75
2019-05-19T09:02:28.967Z,63.63
2019-05-19T09:04:58.886Z,65.28
2019-05-19T09:07:30.927Z,65.40
2019-05-19T09:10:02.804Z,69.25
2019-05-19T09:12:34.236Z,67.08
2019-05-19T09:15:09.283Z,66.92
2019-05-19T09:17:45.742Z,63.95
2019-05-19T09:20:33.970Z,64.72
2019-05-19T09:23:04.699Z,63.45
2019-05-19T09:25:41.071Z,60.67
2019-05-19T09:28:19.176Z,60.65
2019-05-19T09:30:47.752Z,57.83
2019-05-19T09:33:19.570Z,58.73
2019-05-19T09:35:55.022Z,61.33
2019-05-19T09:38:29.577Z,59.85
2019-05-19T09:40:58.237Z,62.70
2019-05-19T09:43:36.364Z,57.95
2019-05-19T09:46:06.231Z,61.23
2019-05-19T09:48:39.501Z,62.98
2019-05-19T09:51:42.572Z,61.15
2019-05-19T09:54:16.945Z,57.10
2019-05-19T09:57:33.009Z,58.25
2019-05-19T10:00:02.897Z,57.62
2019-05-19T10:02:36.136Z,56.20
2019-05-19T10:05:18.376Z,54.27
2019-05-19T10:07:55.147Z,52.40
2019-05-19T10:10:33.505Z,51.92
2019-05-19T10:13:02.175Z,51.90
2019-05-19T10:15:32.789Z,52.10
2019-05-19T10:18:01.418Z,52.48
2019-05-19T10:20:32.801Z,50.67
2019-05-19T10:23:04.479Z,51.55
2019-05-19T10:25:42.337Z,52.40
2019-05-19T10:28:21.809Z,53.45
2019-05-19T10:30:50.403Z,51.37
2019-05-19T10:33:24.712Z,44.67
2019-05-19T10:35:54.314Z,50.73
2019-05-19T10:38:28.763Z,50.35
2019-05-19T10:41:00.525Z,50.45
2019-05-19T10:43:29.136Z,49.77
2019-05-19T10:46:06.404Z,52.70
2019-05-19T10:48:41.333Z,50.80
2019-05-19T10:51:10.854Z,51.60
2019-05-19T10:54:00.795Z,52.98
2019-05-19T10:56:36.161Z,53.13
2019-05-19T10:59:24.972Z,53.75
2019-05-19T11:01:54.135Z,49.98
2019-05-19T11:04:23.993Z,50.03
2019-05-19T11:07:11.845Z,48.58
2019-05-19T11:09:45.315Z,48.63
2019-05-19T11:12:48.787Z,45.70
2019-05-19T11:15:23.293Z,46.65
2019-05-19T11:17:52.306Z,44.58
2019-05-19T11:20:28.899Z,44.95
2019-05-19T11:23:03.606Z,42.75
2019-05-19T11:25:34.365Z,43.45
2019-05-19T11:28:06.861Z,42.50
2019-05-19T11:30:41.222Z,40.10
2019-05-19T11:33:14.981Z,39.42
2019-05-19T11:35:46.619Z,38.40
2019-05-19T11:38:21.097Z,37.75
2019-05-19T11:40:53.375Z,35.15
2019-05-19T11:43:27.756Z,36.58
2019-05-19T11:45:59.112Z,39.27
2019-05-19T11:48:30.240Z,38.20
2019-05-19T11:51:00.256Z,38.35
2019-05-19T11:53:32.492Z,39.33
2019-05-19T11:56:07.321Z,39.00
2019-05-19T11:58:41.101Z,39.63
2019-05-19T12:01:17.438Z,40.40
2019-05-19T12:03:55.504Z,41.08
2019-05-19T12:06:38.137Z,43.17
2019-05-19T12:11:40.866Z,42.85
2019-05-19T12:14:39.847Z,41.58
2019-05-19T12:17:14.775Z,41.13
2019-05-19T12:19:45.988Z,42.30
2019-05-19T12:22:14.600Z,42.30
2019-05-19T12:24:54.396Z,42.13
2019-05-19T12:27:28.884Z,44.42
2019-05-19T12:29:59.379Z,42.90
2019-05-19T12:32:31.679Z,44.35
2019-05-19T12:35:07.445Z,43.48
2019-05-19T12:37:42.095Z,43.80
2019-05-19T12:40:13.484Z,44.20
2019-05-19T12:42:42.183Z,43.35
2019-05-19T12:45:11.385Z,45.43
2019-05-19T12:47:46.633Z,49.05
2019-05-19T12:50:16.476Z,47.15
2019-05-19T12:52:46.975Z,45.03
2019-05-19T12:55:45.348Z,48.85
2019-05-19T12:58:18.750Z,44.38
2019-05-19T13:00:59.496Z,46.13
2019-05-19T13:03:28.201Z,45.78
2019-05-19T13:06:10.925Z,46.88
2019-05-19T13:08:58.166Z,47.53
2019-05-19T13:12:01.244Z,48.68
2019-05-19T13:18:08.112Z,46.95
2019-05-19T13:20:37.740Z,49.40
2019-05-19T13:23:06.394Z,45.60
2019-05-19T13:25:38.058Z,48.28
2019-05-19T13:28:18.826Z,46.20
2019-05-19T13:30:50.685Z,46.35
2019-05-19T13:33:20.383Z,46.30
2019-05-19T13:36:00.001Z,46.75
2019-05-19T13:38:31.397Z,44.90
2019-05-19T13:41:09.247Z,45.12
2019-05-19T13:43:37.884Z,45.85
2019-05-19T13:46:09.157Z,44.60
2019-05-19T13:48:38.691Z,46.28
2019-05-19T13:51:17.203Z,47.73
2019-05-19T13:53:45.807Z,49.50
2019-05-19T13:56:14.536Z,47.85
2019-05-19T13:58:46.160Z,47.33
2019-05-19T14:01:29.863Z,45.05
2019-05-19T14:03:58.650Z,44.73
2019-05-19T14:06:33.016Z,43.17
2019-05-19T14:09:03.000Z,43.68
2019-05-19T14:11:34.331Z,45.43
2019-05-19T14:14:15.982Z,47.73
2019-05-19T14:16:51.251Z,47.43
2019-05-19T14:19:23.052Z,45.30
2019-05-19T14:21:54.408Z,45.17
2019-05-19T14:24:28.420Z,43.98
2019-05-19T14:27:00.188Z,44.20
2019-05-19T14:29:31.801Z,43.28
2019-05-19T14:32:00.464Z,42.80
2019-05-19T14:34:29.107Z,45.33
2019-05-19T14:37:03.431Z,45.08
2019-05-19T14:39:32.075Z,48.50
2019-05-19T14:42:04.457Z,46.37
2019-05-19T14:44:50.148Z,46.05
2019-05-19T14:47:22.058Z,47.67
2019-05-19T14:49:57.910Z,45.55
2019-05-19T14:52:32.897Z,48.10
2019-05-19T14:55:04.473Z,52.30
2019-05-19T14:57:44.411Z,49.73
2019-05-19T15:00:09.076Z,49.23
2019-05-19T15:02:43.645Z,49.55
2019-05-19T15:05:19.265Z,51.23
2019-05-19T15:07:53.685Z,52.33
2019-05-19T15:10:29.081Z,55.67
2019-05-19T15:13:00.412Z,55.73
2019-05-19T15:15:32.098Z,55.60
2019-05-19T15:18:06.651Z,52.98
2019-05-19T15:20:41.466Z,52.00
2019-05-19T15:23:11.076Z,53.20
2019-05-19T15:25:49.127Z,54.63
2019-05-19T15:28:17.821Z,54.67
2019-05-19T15:30:52.254Z,55.40
2019-05-19T15:33:22.019Z,55.80
2019-05-19T15:35:53.433Z,56.83
2019-05-19T15:38:27.876Z,57.08
2019-05-19T15:41:08.004Z,54.75
2019-05-19T15:43:39.326Z,54.88
2019-05-19T15:46:11.303Z,54.18
2019-05-19T15:48:41.975Z,56.65
2019-05-19T15:51:13.537Z,58.10
2019-05-19T15:53:46.356Z,61.73
2019-05-19T15:56:17.693Z,61.48
2019-05-19T16:01:31.770Z,62.35
2019-05-19T16:04:01.818Z,66.30
2019-05-19T16:06:39.359Z,65.37
2019-05-19T16:09:23.135Z,65.50
2019-05-19T16:11:59.725Z,64.07
2019-05-19T16:14:31.437Z,63.65
2019-05-19T16:17:03.219Z,65.55
2019-05-19T16:19:37.568Z,70.25
2019-05-19T16:22:23.544Z,67.55
2019-05-19T16:24:59.025Z,70.92
2019-05-19T16:27:42.891Z,72.60
2019-05-19T16:30:43.587Z,68.45
2019-05-19T16:33:13.210Z,71.63
2019-05-19T16:35:44.870Z,73.67
2019-05-19T16:38:19.561Z,71.50
2019-05-19T16:40:51.579Z,78.57
2019-05-19T16:43:22.925Z,79.17
2019-05-19T16:48:29.090Z,78.45
2019-05-19T16:50:57.767Z,76.37
2019-05-19T16:53:29.514Z,75.55
2019-05-19T16:56:31.914Z,74.00
2019-05-19T16:59:13.491Z,71.47
2019-05-19T17:01:42.108Z,73.83
2019-05-19T17:04:13.566Z,73.20
2019-05-19T17:06:42.331Z,71.28
2019-05-19T17:09:18.911Z,76.28
2019-05-19T17:11:56.078Z,69.75
2019-05-19T17:14:26.806Z,73.42
2019-05-19T17:16:58.036Z,75.03
2019-05-19T17:19:34.656Z,70.75
2019-05-19T17:22:11.673Z,73.28
2019-05-19T17:24:40.590Z,74.90
2019-05-19T17:27:11.249Z,69.03
2019-05-19T17:30:12.011Z,67.58
2019-05-19T17:32:43.626Z,68.10
2019-05-19T17:35:13.534Z,71.28
2019-05-19T17:37:43.723Z,69.67
2019-05-19T17:40:19.172Z,72.30
2019-05-19T17:42:54.585Z,72.58
2019-05-19T17:45:25.926Z,72.40
2019-05-19T17:48:10.016Z,76.00
2019-05-19T17:50:44.268Z,77.03
2019-05-19T17:53:13.768Z,79.97
2019-05-19T17:55:49.222Z,77.27
2019-05-19T17:58:20.220Z,80.95
2019-05-19T18:00:55.376Z,77.60
2019-05-19T18:03:27.987Z,75.75
2019-05-19T18:05:57.178Z,81.72
2019-05-19T18:08:27.236Z,82.12
2019-05-19T18:11:00.178Z,81.15
2019-05-19T18:16:34.590Z,88.27
2019-05-19T18:19:15.297Z,86.90
2019-05-19T18:21:45.024Z,85.57
2019-05-19T18:24:22.472Z,86.28
2019-05-19T18:26:57.212Z,80.72
2019-05-19T18:29:31.271Z,80.50
2019-05-19T18:32:00.614Z,83.33
2019-05-19T18:34:31.993Z,78.55
2019-05-19T18:37:03.222Z,77.50
2019-05-19T18:39:42.483Z,79.30
2019-05-19T18:42:13.090Z,77.30
2019-05-19T18:44:44.813Z,79.97
2019-05-19T18:47:21.027Z,78.10
2019-05-19T18:49:51.301Z,79.92
2019-05-19T18:52:35.122Z,82.37
2019-05-19T18:55:07.169Z,85.07
2019-05-19T18:58:12.732Z,87.85
2019-05-19T19:00:50.073Z,85.87
2019-05-19T19:03:33.683Z,85.83
2019-05-19T19:06:09.848Z,88.07
2019-05-19T19:08:38.456Z,87.57
2019-05-19T19:11:51.476Z,85.80
2019-05-19T19:14:20.233Z,83.00
2019-05-19T19:16:54.932Z,85.10
2019-05-19T19:19:23.585Z,82.75
2019-05-19T19:21:55.026Z,87.40
2019-05-19T19:24:32.370Z,84.37
2019-05-19T19:27:08.797Z,87.30
2019-05-19T19:29:43.393Z,92.72
2019-05-19T19:32:14.148Z,89.10
2019-05-19T19:34:48.696Z,91.85
2019-05-19T19:37:20.130Z,89.20
2019-05-19T19:39:51.534Z,92.10
2019-05-19T19:42:26.107Z,87.78
2019-05-19T19:44:54.735Z,89.95
2019-05-19T19:47:40.100Z,88.55
2019-05-19T19:50:11.447Z,90.03
2019-05-19T19:52:41.959Z,86.70
2019-05-19T19:55:17.698Z,87.17
2019-05-19T19:58:09.575Z,86.75
2019-05-19T20:00:42.769Z,84.55
2019-05-19T20:03:17.786Z,86.25
2019-05-19T20:06:14.723Z,85.77
2019-05-19T20:08:49.376Z,86.60
2019-05-19T20:11:17.979Z,86.95
2019-05-19T20:13:59.917Z,83.95
2019-05-19T20:16:29.326Z,85.45
2019-05-19T20:18:59.832Z,86.35
2019-05-19T20:21:28.569Z,83.95
2019-05-19T20:24:10.564Z,83.27
2019-05-19T20:26:45.072Z,79.55
2019-05-19T20:29:17.108Z,77.65
2019-05-19T20:31:45.808Z,76.12
2019-05-19T20:34:17.338Z,72.00
2019-05-19T20:39:18.540Z,65.60
2019-05-19T20:41:59.163Z,68.70
2019-05-19T20:44:29.796Z,61.60
2019-05-19T20:47:01.021Z,59.27
2019-05-19T20:49:32.598Z,55.35
2019-05-19T20:52:16.197Z,54.98
2019-05-19T20:54:54.235Z,57.17
2019-05-19T20:57:40.763Z,58.48
2019-05-19T21:00:20.252Z,56.53
2019-05-19T21:02:51.926Z,57.88
2019-05-19T21:05:23.155Z,57.90
2019-05-19T21:07:54.753Z,59.27
2019-05-19T21:10:47.221Z,57.70
2019-05-19T21:13:15.818Z,58.70
2019-05-19T21:15:44.504Z,57.78
2019-05-19T21:18:13.186Z,56.10
2019-05-19T21:20:41.811Z,53.45
2019-05-19T21:23:17.368Z,54.20
2019-05-19T21:25:45.940Z,52.78
2019-05-19T21:28:17.328Z,57.25
2019-05-19T21:30:48.608Z,53.98
2019-05-19T21:33:23.175Z,55.60
2019-05-19T21:35:56.024Z,56.50
2019-05-19T21:38:37.293Z,55.67
2019-05-19T21:41:08.900Z,55.25
2019-05-19T21:46:18.379Z,55.73
2019-05-19T21:48:47.010Z,58.38
2019-05-19T21:51:24.722Z,60.35
2019-05-19T21:53:53.385Z,56.55
2019-05-19T21:56:22.102Z,54.90
2019-05-19T21:59:24.617Z,55.70
2019-05-19T22:01:59.321Z,58.05
2019-05-19T22:04:30.569Z,57.58
2019-05-19T22:07:02.788Z,57.80
2019-05-19T22:09:34.080Z,59.70
2019-05-19T22:12:03.164Z,58.60
2019-05-19T22:14:37.505Z,60.00
2019-05-19T22:17:12.127Z,60.12
2019-05-19T22:19:43.772Z,67.90
2019-05-19T22:22:12.536Z,69.10
2019-05-19T22:24:48.035Z,69.17
2019-05-19T22:27:36.084Z,68.05
2019-05-19T22:30:10.677Z,70.03
2019-05-19T22:32:42.801Z,71.30
2019-05-19T22:35:17.531Z,74.10
2019-05-19T22:37:52.417Z,85.17
2019-05-19T22:40:21.048Z,88.87
2019-05-19T22:42:55.431Z,86.78
2019-05-19T22:45:29.959Z,89.32
2019-05-19T22:47:58.612Z,87.75
2019-05-19T22:50:33.244Z,87.92
2019-05-19T22:53:03.964Z,87.27
2019-05-19T22:55:32.700Z,92.60
2019-05-19T22:58:01.290Z,90.50
2019-05-19T23:00:32.069Z,88.62
2019-05-19T23:03:05.047Z,86.55
2019-05-19T23:05:41.594Z,85.28
2019-05-19T23:08:12.915Z,82.55
2019-05-19T23:10:47.479Z,82.90
2019-05-19T23:13:18.110Z,84.17
2019-05-19T23:15:49.441Z,85.13
2019-05-19T23:18:32.206Z,79.75
2019-05-19T23:21:01.690Z,79.22
2019-05-19T23:23:35.977Z,78.33
2019-05-19T23:26:07.250Z,78.80
2019-05-19T23:28:36.624Z,79.80
2019-05-19T23:31:05.209Z,79.53
2019-05-19T23:33:37.574Z,80.15
2019-05-19T23:36:23.387Z,79.00
2019-05-19T23:38:52.043Z,77.10
2019-05-19T23:41:20.700Z,80.03
2019-05-19T23:43:50.435Z,76.10
2019-05-19T23:46:30.706Z,77.35
2019-05-19T23:49:02.056Z,81.17
2019-05-19T23:51:37.982Z,80.70
2019-05-19T23:54:12.519Z,81.00
2019-05-19T23:56:47.355Z,77.22
2019-05-19T23:59:22.057Z,77.45
